createdAt,value
2022-09-28T00:00:08.531Z,21.17
2022-09-28T00:02:09.910Z,21.14
2022-09-28T00:04:11.574Z,21.09
2022-09-28T00:06:12.831Z,21.05
2022-09-28T00:08:14.127Z,21.03
2022-09-28T00:10:16.046Z,21.00
2022-09-28T00:12:18.410Z,20.96
2022-09-28T00:14:19.736Z,20.94
2022-09-28T00:16:21.073Z,20.93
2022-09-28T00:18:22.358Z,20.89
2022-09-28T00:20:23.637Z,20.86
2022-09-28T00:22:24.948Z,20.83
2022-09-28T00:24:27.916Z,20.81
2022-09-28T00:26:29.269Z,20.82
2022-09-28T00:28:31.419Z,20.81
2022-09-28T00:30:32.710Z,20.81
2022-09-28T00:32:34.035Z,20.79
2022-09-28T00:34:35.400Z,20.79
2022-09-28T00:36:36.766Z,20.80
2022-09-28T00:38:40.592Z,20.84
2022-09-28T00:40:41.930Z,20.85
2022-09-28T00:42:43.275Z,20.83
2022-09-28T00:44:44.581Z,20.83
2022-09-28T00:46:45.894Z,20.83
2022-09-28T00:48:47.171Z,20.81
2022-09-28T00:50:48.490Z,20.81
2022-09-28T00:52:49.845Z,20.83
2022-09-28T00:54:51.119Z,20.82
2022-09-28T00:56:52.406Z,20.83
2022-09-28T00:58:54.690Z,20.85
2022-09-28T01:00:56.340Z,20.82
2022-09-28T01:02:57.955Z,20.76
2022-09-28T01:04:59.341Z,20.72
2022-09-28T01:07:00.631Z,20.70
2022-09-28T01:09:03.050Z,20.68
2022-09-28T01:11:04.707Z,20.66
2022-09-28T01:13:05.995Z,20.65
2022-09-28T01:15:07.322Z,20.63
2022-09-28T01:17:08.906Z,20.64
2022-09-28T01:19:10.293Z,20.64
2022-09-28T01:21:11.656Z,20.64
2022-09-28T01:23:13.843Z,20.62
2022-09-28T01:25:15.123Z,20.61
2022-09-28T01:27:16.428Z,20.59
2022-09-28T01:29:17.869Z,20.60
2022-09-28T01:31:19.247Z,20.60
2022-09-28T01:33:20.848Z,20.59
2022-09-28T01:35:22.174Z,20.60
2022-09-28T01:37:23.502Z,20.60
2022-09-28T01:39:24.872Z,20.64
2022-09-28T01:41:26.145Z,20.64
2022-09-28T01:43:27.451Z,20.63
2022-09-28T01:45:28.816Z,20.62
2022-09-28T01:47:30.160Z,20.64
2022-09-28T01:49:31.468Z,20.65
2022-09-28T01:51:32.742Z,20.68
2022-09-28T01:53:34.019Z,20.71
2022-09-28T01:55:35.347Z,20.72
2022-09-28T01:57:36.616Z,20.74
2022-09-28T01:59:37.903Z,20.75
2022-09-28T02:01:39.236Z,20.78
2022-09-28T02:03:40.586Z,20.85
2022-09-28T02:05:41.949Z,20.93
2022-09-28T02:07:43.430Z,20.96
2022-09-28T02:09:44.716Z,20.98
2022-09-28T02:11:45.993Z,20.98
2022-09-28T02:13:47.277Z,21.01
2022-09-28T02:15:48.558Z,21.03
2022-09-28T02:17:49.827Z,21.02
2022-09-28T02:19:51.443Z,21.03
2022-09-28T02:21:52.724Z,21.03
2022-09-28T02:23:54.016Z,21.03
2022-09-28T02:25:55.343Z,21.02
2022-09-28T02:27:56.662Z,21.01
2022-09-28T02:29:57.923Z,20.98
2022-09-28T02:31:59.194Z,20.97
2022-09-28T02:34:00.686Z,20.96
2022-09-28T02:36:03.508Z,20.99
2022-09-28T02:38:04.790Z,20.84
2022-09-28T02:40:06.102Z,20.84
2022-09-28T02:42:07.445Z,20.83
2022-09-28T02:44:08.730Z,20.84
2022-09-28T02:46:10.164Z,20.85
2022-09-28T02:48:11.462Z,20.85
2022-09-28T02:50:13.112Z,20.89
2022-09-28T02:52:14.449Z,20.91
2022-09-28T02:54:18.783Z,20.91
2022-09-28T02:56:20.322Z,20.92
2022-09-28T02:58:21.610Z,20.93
2022-09-28T03:00:22.932Z,20.93
2022-09-28T03:02:25.002Z,20.93
2022-09-28T03:04:26.331Z,20.95
2022-09-28T03:06:27.625Z,20.95
2022-09-28T03:08:28.891Z,20.95
2022-09-28T03:10:30.230Z,20.95
2022-09-28T03:12:33.249Z,20.96
2022-09-28T03:14:34.539Z,20.93
2022-09-28T03:16:35.963Z,20.95
2022-09-28T03:18:38.500Z,20.98
2022-09-28T03:20:39.783Z,20.97
2022-09-28T03:22:41.058Z,20.98
2022-09-28T03:24:42.326Z,20.96
2022-09-28T03:26:43.657Z,20.97
2022-09-28T03:28:45.110Z,20.97
2022-09-28T03:30:46.372Z,20.95
2022-09-28T03:32:47.635Z,20.93
2022-09-28T03:34:48.988Z,20.90
2022-09-28T03:36:50.254Z,20.91
2022-09-28T03:38:51.544Z,20.94
2022-09-28T03:40:52.911Z,20.96
2022-09-28T03:42:54.246Z,20.95
2022-09-28T03:44:55.722Z,20.97
2022-09-28T03:46:56.998Z,20.98
2022-09-28T03:48:59.268Z,20.98
2022-09-28T03:51:00.687Z,20.99
2022-09-28T03:53:02.235Z,21.03
2022-09-28T03:55:03.546Z,21.07
2022-09-28T03:57:04.870Z,21.09
2022-09-28T03:59:06.161Z,21.10
2022-09-28T04:01:07.584Z,21.09
2022-09-28T04:03:09.446Z,21.08
2022-09-28T04:05:10.813Z,21.08
2022-09-28T04:07:12.143Z,21.05
2022-09-28T04:09:13.567Z,21.03
2022-09-28T04:11:14.899Z,21.01
2022-09-28T04:13:16.378Z,20.98
2022-09-28T04:15:17.643Z,20.95
2022-09-28T04:17:18.923Z,20.93
2022-09-28T04:19:20.238Z,20.97
2022-09-28T04:21:21.531Z,20.97
2022-09-28T04:23:23.018Z,20.96
2022-09-28T04:25:24.300Z,20.95
2022-09-28T04:27:44.319Z,20.97
2022-09-28T04:29:45.583Z,21.00
2022-09-28T04:31:46.946Z,21.01
2022-09-28T04:33:48.255Z,21.04
2022-09-28T04:35:49.574Z,21.04
2022-09-28T04:37:50.842Z,21.06
2022-09-28T04:39:52.111Z,21.07
2022-09-28T04:41:53.459Z,21.09
2022-09-28T04:43:54.828Z,21.10
2022-09-28T04:45:56.111Z,21.09
2022-09-28T04:47:57.471Z,21.09
2022-09-28T04:49:58.725Z,21.09
2022-09-28T04:52:00.038Z,21.10
2022-09-28T04:54:01.299Z,21.10
2022-09-28T04:56:02.598Z,21.08
2022-09-28T04:58:03.900Z,21.10
2022-09-28T05:00:05.439Z,21.11
2022-09-28T05:02:06.794Z,21.11
2022-09-28T05:04:08.117Z,21.11
2022-09-28T05:06:09.432Z,21.10
2022-09-28T05:08:11.105Z,21.12
2022-09-28T05:10:12.405Z,21.13
2022-09-28T05:12:13.705Z,21.15
2022-09-28T05:14:15.031Z,21.13
2022-09-28T05:16:16.437Z,21.15
2022-09-28T05:18:17.771Z,21.14
2022-09-28T05:20:19.061Z,21.13
2022-09-28T05:22:20.322Z,21.15
2022-09-28T05:24:21.598Z,21.18
2022-09-28T05:26:22.910Z,21.17
2022-09-28T05:28:24.302Z,21.14
2022-09-28T05:30:25.638Z,21.12
2022-09-28T05:32:26.906Z,21.10
2022-09-28T05:34:28.207Z,21.08
2022-09-28T05:36:32.499Z,21.07
2022-09-28T05:38:33.826Z,21.08
2022-09-28T05:40:35.198Z,21.07
2022-09-28T05:42:36.551Z,21.08
2022-09-28T05:44:38.511Z,21.08
2022-09-28T05:46:39.853Z,21.07
2022-09-28T05:48:41.144Z,21.06
2022-09-28T05:50:42.603Z,21.06
2022-09-28T05:52:44.478Z,21.07
2022-09-28T05:54:45.812Z,21.06
2022-09-28T05:56:47.123Z,21.04
2022-09-28T05:58:48.453Z,21.01
2022-09-28T06:00:49.768Z,20.98
2022-09-28T06:02:51.165Z,20.96
2022-09-28T06:04:53.792Z,20.94
2022-09-28T06:06:55.070Z,20.93
2022-09-28T06:08:56.375Z,20.95
2022-09-28T06:10:57.639Z,20.96
2022-09-28T06:12:58.969Z,20.96
2022-09-28T06:15:01.238Z,20.98
2022-09-28T06:17:02.575Z,21.03
2022-09-28T06:19:03.906Z,21.09
2022-09-28T06:21:08.247Z,21.11
2022-09-28T06:23:09.915Z,21.11
2022-09-28T06:25:11.195Z,21.11
2022-09-28T06:27:12.462Z,21.11
2022-09-28T06:29:19.648Z,21.11
2022-09-28T06:31:23.816Z,21.12
2022-09-28T06:33:26.737Z,21.13
2022-09-28T06:35:28.006Z,21.11
2022-09-28T06:37:29.307Z,21.10
2022-09-28T06:39:30.590Z,21.11
2022-09-28T06:41:31.863Z,21.13
2022-09-28T06:43:35.023Z,21.14
2022-09-28T06:45:36.283Z,21.15
2022-09-28T06:47:37.747Z,21.14
2022-09-28T06:49:39.027Z,21.16
2022-09-28T06:51:40.305Z,21.16
2022-09-28T06:53:41.628Z,21.13
2022-09-28T06:55:42.902Z,21.17
2022-09-28T06:57:44.215Z,21.11
2022-09-28T06:59:45.564Z,21.02
2022-09-28T07:01:46.917Z,21.09
2022-09-28T07:03:51.440Z,21.10
2022-09-28T07:05:54.976Z,20.99
2022-09-28T07:07:56.368Z,20.90
2022-09-28T07:09:57.654Z,20.83
2022-09-28T07:11:58.931Z,20.79
2022-09-28T07:14:00.207Z,20.76
2022-09-28T07:16:01.905Z,20.69
2022-09-28T07:18:04.066Z,20.66
2022-09-28T07:20:16.631Z,20.66
2022-09-28T07:22:21.141Z,20.69
2022-09-28T07:24:23.465Z,20.68
2022-09-28T07:26:25.671Z,20.67
2022-09-28T07:28:26.996Z,20.67
2022-09-28T07:30:28.365Z,20.65
2022-09-28T07:34:44.025Z,20.62
2022-09-28T07:36:45.302Z,20.62
2022-09-28T07:38:46.610Z,20.60
2022-09-28T07:41:06.787Z,20.59
2022-09-28T07:43:08.127Z,20.56
2022-09-28T07:45:09.408Z,20.54
2022-09-28T07:47:10.678Z,20.50
2022-09-28T07:49:12.745Z,20.47
2022-09-28T07:51:14.087Z,20.45
2022-09-28T07:53:15.428Z,20.44
2022-09-28T07:55:16.701Z,20.44
2022-09-28T07:57:18.110Z,20.45
2022-09-28T07:59:20.332Z,20.45
2022-09-28T08:01:21.749Z,20.47
2022-09-28T08:03:23.116Z,20.48
2022-09-28T08:05:24.619Z,20.51
2022-09-28T08:07:25.930Z,19.67
2022-09-28T08:09:27.218Z,20.53
2022-09-28T08:11:28.521Z,20.54
2022-09-28T08:13:31.124Z,20.54
2022-09-28T08:15:36.439Z,20.51
2022-09-28T08:17:37.712Z,20.50
2022-09-28T08:19:57.639Z,20.47
2022-09-28T08:21:59.090Z,20.43
2022-09-28T08:24:00.532Z,20.41
2022-09-28T08:26:01.857Z,20.38
2022-09-28T08:28:03.162Z,20.36
2022-09-28T08:30:04.454Z,20.32
2022-09-28T08:32:08.055Z,20.30
2022-09-28T08:34:09.387Z,20.29
2022-09-28T08:36:10.669Z,20.25
2022-09-28T08:38:12.151Z,20.23
2022-09-28T08:40:13.635Z,20.21
2022-09-28T08:42:15.699Z,20.19
2022-09-28T08:44:17.134Z,20.18
2022-09-28T08:46:18.525Z,20.18
2022-09-28T08:48:38.802Z,20.17
2022-09-28T08:50:40.071Z,20.17
2022-09-28T08:52:41.495Z,20.16
2022-09-28T08:54:43.019Z,20.15
2022-09-28T08:56:44.302Z,20.12
2022-09-28T08:58:45.842Z,20.11
2022-09-28T09:00:47.478Z,20.11
2022-09-28T09:02:48.839Z,20.10
2022-09-28T09:04:51.593Z,20.09
2022-09-28T09:06:52.934Z,20.08
2022-09-28T09:08:54.698Z,20.07
2022-09-28T09:10:55.975Z,20.07
2022-09-28T09:12:58.668Z,20.00
2022-09-28T09:15:00.002Z,18.92
2022-09-28T09:17:01.391Z,18.87
2022-09-28T09:19:02.850Z,20.12
2022-09-28T09:21:06.239Z,20.93
2022-09-28T09:23:07.530Z,21.25
2022-09-28T09:25:08.804Z,21.34
2022-09-28T09:27:10.093Z,21.47
2022-09-28T09:29:11.814Z,21.48
2022-09-28T09:31:13.108Z,21.52
2022-09-28T09:33:15.933Z,21.43
2022-09-28T09:35:17.774Z,21.26
2022-09-28T09:37:19.667Z,21.22
2022-09-28T09:39:20.964Z,21.46
2022-09-28T09:41:22.511Z,21.81
2022-09-28T09:43:28.004Z,21.85
2022-09-28T09:45:32.278Z,21.84
2022-09-28T09:47:33.556Z,21.70
2022-09-28T09:49:34.871Z,21.51
2022-09-28T09:51:36.183Z,21.14
2022-09-28T09:53:38.515Z,20.90
2022-09-28T09:55:40.686Z,20.74
2022-09-28T09:57:42.162Z,20.67
2022-09-28T09:59:44.498Z,20.59
2022-09-28T10:01:45.881Z,20.53
2022-09-28T10:03:48.341Z,20.49
2022-09-28T10:05:49.635Z,20.44
2022-09-28T10:07:51.136Z,20.40
2022-09-28T10:09:52.415Z,20.36
2022-09-28T10:11:54.346Z,20.34
2022-09-28T10:13:55.763Z,20.25
2022-09-28T10:15:57.130Z,20.27
2022-09-28T10:17:58.430Z,20.29
2022-09-28T10:19:59.714Z,20.28
2022-09-28T10:22:02.623Z,20.26
2022-09-28T10:24:03.980Z,20.24
2022-09-28T10:26:05.257Z,20.22
2022-09-28T10:28:06.568Z,20.18
2022-09-28T10:30:08.538Z,20.16
2022-09-28T10:32:09.868Z,20.14
2022-09-28T10:34:11.345Z,20.14
2022-09-28T10:36:12.970Z,20.13
2022-09-28T10:38:14.279Z,20.23
2022-09-28T10:40:15.656Z,20.33
2022-09-28T10:42:16.995Z,20.38
2022-09-28T10:44:18.811Z,20.39
2022-09-28T10:46:20.207Z,20.40
2022-09-28T10:48:21.745Z,20.41
2022-09-28T10:50:23.066Z,20.44
2022-09-28T10:52:24.327Z,20.43
2022-09-28T10:54:25.694Z,20.40
2022-09-28T10:56:27.015Z,20.40
2022-09-28T10:58:28.311Z,20.37
2022-09-28T11:00:29.624Z,20.37
2022-09-28T11:02:35.465Z,20.35
2022-09-28T11:04:37.399Z,20.40
2022-09-28T11:06:38.671Z,20.43
2022-09-28T11:08:40.172Z,20.45
2022-09-28T11:10:41.471Z,20.46
2022-09-28T11:12:42.798Z,20.45
2022-09-28T11:14:44.358Z,20.44
2022-09-28T11:16:45.743Z,20.55
2022-09-28T11:18:47.120Z,20.49
2022-09-28T11:20:49.528Z,20.40
2022-09-28T11:22:53.543Z,20.30
2022-09-28T11:24:54.948Z,20.24
2022-09-28T11:27:02.192Z,20.28
2022-09-28T11:29:04.520Z,20.23
2022-09-28T11:31:07.232Z,20.20
2022-09-28T11:33:09.159Z,20.17
2022-09-28T11:35:10.466Z,20.13
2022-09-28T11:37:11.739Z,20.11
2022-09-28T11:39:13.234Z,20.12
2022-09-28T11:41:14.530Z,20.14
2022-09-28T11:43:16.797Z,20.14
2022-09-28T11:45:18.466Z,20.12
2022-09-28T11:47:20.415Z,20.10
2022-09-28T11:49:21.702Z,20.08
2022-09-28T11:51:22.979Z,20.08
2022-09-28T11:53:24.255Z,20.10
2022-09-28T11:55:25.582Z,20.13
2022-09-28T11:57:26.851Z,20.13
2022-09-28T11:59:30.135Z,20.10
2022-09-28T12:01:35.507Z,20.07
2022-09-28T12:03:36.921Z,20.06
2022-09-28T12:05:38.275Z,20.04
2022-09-28T12:07:39.618Z,20.05
2022-09-28T12:09:40.889Z,20.05
2022-09-28T12:11:43.866Z,20.05
2022-09-28T12:13:45.163Z,20.06
2022-09-28T12:16:12.944Z,20.08
2022-09-28T12:18:07.845Z,20.10
2022-09-28T12:20:09.223Z,20.11
2022-09-28T12:22:10.910Z,20.13
2022-09-28T12:24:12.183Z,20.13
2022-09-28T12:26:13.480Z,20.14
2022-09-28T12:28:14.807Z,20.14
2022-09-28T12:30:16.132Z,20.17
2022-09-28T12:32:17.461Z,20.17
2022-09-28T12:34:18.783Z,20.15
2022-09-28T12:36:20.063Z,20.15
2022-09-28T12:38:21.406Z,20.16
2022-09-28T12:40:22.723Z,20.19
2022-09-28T12:42:27.643Z,20.20
2022-09-28T12:44:29.030Z,20.28
2022-09-28T12:46:30.375Z,20.37
2022-09-28T12:48:31.775Z,20.44
2022-09-28T12:50:38.483Z,20.67
2022-09-28T12:54:47.536Z,20.73
2022-09-28T12:56:48.831Z,20.61
2022-09-28T12:58:50.767Z,20.52
2022-09-28T13:00:52.182Z,20.44
2022-09-28T13:02:53.578Z,20.40
2022-09-28T13:04:54.880Z,20.34
2022-09-28T13:06:56.191Z,20.35
2022-09-28T13:08:57.635Z,20.36
2022-09-28T13:10:58.924Z,20.42
2022-09-28T13:13:00.199Z,20.41
2022-09-28T13:15:01.537Z,20.32
2022-09-28T13:17:02.809Z,20.27
2022-09-28T13:19:04.119Z,20.23
2022-09-28T13:21:05.447Z,20.19
2022-09-28T13:23:06.826Z,20.17
2022-09-28T13:25:08.094Z,20.17
2022-09-28T13:27:10.254Z,20.15
2022-09-28T13:29:11.629Z,20.10
2022-09-28T13:31:13.079Z,20.06
2022-09-28T13:33:14.391Z,20.02
2022-09-28T13:35:15.720Z,20.01
2022-09-28T13:37:17.026Z,20.00
2022-09-28T13:39:18.346Z,19.99
2022-09-28T13:41:19.669Z,19.99
2022-09-28T13:43:20.963Z,19.98
2022-09-28T13:45:22.294Z,20.00
2022-09-28T13:47:24.678Z,20.01
2022-09-28T13:49:26.007Z,20.13
2022-09-28T13:51:27.345Z,20.31
2022-09-28T13:53:28.634Z,20.28
2022-09-28T13:55:32.126Z,20.25
2022-09-28T13:57:33.565Z,20.28
2022-09-28T13:59:34.842Z,20.32
2022-09-28T14:01:36.224Z,20.31
2022-09-28T14:03:37.604Z,20.28
2022-09-28T14:05:38.906Z,20.29
2022-09-28T14:07:40.509Z,20.26
2022-09-28T14:09:41.803Z,20.22
2022-09-28T14:11:43.191Z,20.18
2022-09-28T14:13:44.496Z,20.15
2022-09-28T14:15:45.989Z,20.12
2022-09-28T14:17:50.066Z,20.09
2022-09-28T14:19:51.383Z,20.08
2022-09-28T14:21:52.696Z,20.07
2022-09-28T14:23:58.924Z,20.07
2022-09-28T14:26:01.323Z,20.05
2022-09-28T14:28:02.626Z,20.06
2022-09-28T14:30:03.887Z,20.06
2022-09-28T14:32:05.394Z,20.05
2022-09-28T14:34:13.966Z,20.07
2022-09-28T14:36:35.199Z,20.06
2022-09-28T14:38:55.178Z,20.05
2022-09-28T14:41:12.563Z,20.05
2022-09-28T14:43:13.895Z,20.04
2022-09-28T14:45:15.386Z,20.03
2022-09-28T14:47:16.651Z,20.03
2022-09-28T14:49:19.129Z,20.02
2022-09-28T14:51:20.465Z,20.04
2022-09-28T14:53:21.817Z,20.06
2022-09-28T14:55:23.615Z,20.08
2022-09-28T14:57:25.116Z,20.14
2022-09-28T14:59:26.430Z,20.23
2022-09-28T15:01:27.734Z,20.21
2022-09-28T15:03:29.053Z,20.29
2022-09-28T15:05:30.428Z,20.33
2022-09-28T15:07:35.695Z,20.34
2022-09-28T15:09:36.972Z,20.34
2022-09-28T15:11:38.242Z,20.32
2022-09-28T15:13:40.837Z,20.21
2022-09-28T15:15:42.326Z,20.13
2022-09-28T15:17:43.962Z,20.08
2022-09-28T15:19:45.235Z,20.07
2022-09-28T15:21:48.662Z,20.05
2022-09-28T15:23:50.843Z,20.01
2022-09-28T15:25:52.163Z,19.99
2022-09-28T15:27:54.425Z,19.99
2022-09-28T15:29:55.845Z,19.97
2022-09-28T15:31:57.207Z,19.97
2022-09-28T15:34:17.487Z,19.99
2022-09-28T15:36:19.548Z,19.99
2022-09-28T15:38:20.916Z,20.01
2022-09-28T15:40:22.510Z,20.03
2022-09-28T15:42:23.920Z,20.03
2022-09-28T15:44:25.343Z,20.04
2022-09-28T15:46:26.671Z,20.04
2022-09-28T15:48:29.052Z,20.06
2022-09-28T15:50:30.324Z,20.06
2022-09-28T15:52:33.984Z,20.07
2022-09-28T15:54:35.574Z,20.10
2022-09-28T15:56:36.931Z,20.11
2022-09-28T15:58:38.223Z,20.10
2022-09-28T16:00:40.273Z,20.10
2022-09-28T16:02:41.643Z,20.09
2022-09-28T16:04:43.161Z,20.09
2022-09-28T16:06:44.473Z,20.06
2022-09-28T16:08:46.155Z,20.03
2022-09-28T16:10:47.434Z,20.00
2022-09-28T16:12:48.767Z,19.99
2022-09-28T16:14:50.146Z,19.96
2022-09-28T16:16:51.814Z,19.93
2022-09-28T16:18:55.277Z,19.92
2022-09-28T16:20:56.591Z,19.92
2022-09-28T16:22:59.646Z,19.89
2022-09-28T16:25:00.965Z,19.90
2022-09-28T16:27:03.144Z,19.91
2022-09-28T16:29:04.926Z,19.91
2022-09-28T16:31:07.202Z,19.93
2022-09-28T16:33:08.530Z,19.93
2022-09-28T16:35:12.867Z,19.94
2022-09-28T16:37:14.178Z,19.94
2022-09-28T16:39:16.461Z,19.93
2022-09-28T16:41:19.501Z,19.93
2022-09-28T16:43:20.788Z,19.96
2022-09-28T16:45:23.224Z,19.95
2022-09-28T16:47:24.503Z,19.95
2022-09-28T16:49:26.795Z,19.93
2022-09-28T16:51:28.582Z,19.93
2022-09-28T16:53:48.575Z,19.92
2022-09-28T16:55:49.945Z,19.91
2022-09-28T16:57:51.220Z,19.89
2022-09-28T16:59:52.495Z,19.85
2022-09-28T17:01:56.617Z,19.82
2022-09-28T17:03:57.973Z,19.81
2022-09-28T17:05:59.282Z,19.78
2022-09-28T17:08:00.774Z,19.76
2022-09-28T17:10:02.048Z,19.75
2022-09-28T17:12:03.582Z,19.76
2022-09-28T17:14:04.855Z,19.77
2022-09-28T17:16:10.410Z,19.80
2022-09-28T17:18:12.502Z,19.83
2022-09-28T17:20:13.825Z,19.86
2022-09-28T17:22:16.716Z,19.89
2022-09-28T17:24:18.212Z,19.92
2022-09-28T17:26:19.971Z,19.97
2022-09-28T17:28:21.257Z,20.02
2022-09-28T17:30:25.151Z,20.06
2022-09-28T17:32:27.184Z,20.09
2022-09-28T17:34:28.811Z,20.11
2022-09-28T17:36:30.590Z,20.13
2022-09-28T17:38:32.379Z,20.14
2022-09-28T17:40:34.919Z,20.14
2022-09-28T17:42:36.271Z,20.15
2022-09-28T17:44:37.562Z,20.15
2022-09-28T17:46:39.507Z,20.14
2022-09-28T17:48:40.939Z,20.13
2022-09-28T17:50:46.288Z,20.12
2022-09-28T17:52:50.829Z,20.10
2022-09-28T17:54:53.188Z,20.09
2022-09-28T17:56:54.460Z,20.06
2022-09-28T17:58:55.724Z,20.07
2022-09-28T18:00:57.030Z,20.06
2022-09-28T18:02:58.438Z,20.05
2022-09-28T18:04:59.742Z,20.03
2022-09-28T18:07:01.093Z,20.00
2022-09-28T18:09:05.261Z,19.99
2022-09-28T18:11:06.556Z,19.99
2022-09-28T18:13:08.055Z,19.98
2022-09-28T18:15:09.873Z,19.98
2022-09-28T18:17:11.164Z,19.96
2022-09-28T18:19:12.623Z,19.96
2022-09-28T18:21:13.901Z,19.97
2022-09-28T18:23:15.241Z,19.96
2022-09-28T18:25:16.521Z,19.94
2022-09-28T18:27:17.805Z,19.93
2022-09-28T18:29:19.108Z,19.93
2022-09-28T18:31:20.486Z,19.92
2022-09-28T18:33:21.856Z,19.92
2022-09-28T18:35:24.746Z,19.93
2022-09-28T18:37:26.077Z,19.93
2022-09-28T18:39:27.360Z,19.92
2022-09-28T18:41:29.311Z,19.91
2022-09-28T18:43:34.347Z,19.91
2022-09-28T18:45:37.799Z,19.91
2022-09-28T18:47:39.297Z,19.90
2022-09-28T18:49:45.896Z,19.91
2022-09-28T18:51:47.907Z,19.92
2022-09-28T18:53:49.196Z,19.93
2022-09-28T18:55:50.485Z,19.95
2022-09-28T18:57:52.420Z,19.95
2022-09-28T18:59:53.810Z,19.99
2022-09-28T19:01:55.175Z,20.01
2022-09-28T19:03:56.739Z,18.90
2022-09-28T19:05:58.004Z,20.04
2022-09-28T19:07:59.743Z,20.09
2022-09-28T19:10:01.652Z,20.10
2022-09-28T19:12:02.926Z,20.12
2022-09-28T19:14:04.196Z,20.16
2022-09-28T19:16:05.741Z,20.17
2022-09-28T19:18:07.214Z,20.17
2022-09-28T19:20:08.521Z,20.17
2022-09-28T19:22:10.009Z,20.16
2022-09-28T19:24:11.289Z,20.16
2022-09-28T19:26:12.579Z,20.14
2022-09-28T19:28:13.854Z,20.14
2022-09-28T19:30:16.534Z,20.14
2022-09-28T19:32:17.952Z,20.12
2022-09-28T19:34:19.387Z,20.11
2022-09-28T19:36:21.808Z,20.10
2022-09-28T19:38:23.238Z,20.08
2022-09-28T19:40:24.563Z,20.06
2022-09-28T19:42:25.911Z,20.04
2022-09-28T19:44:27.644Z,20.05
2022-09-28T19:46:29.170Z,20.02
2022-09-28T19:48:30.538Z,20.03
2022-09-28T19:50:33.259Z,20.04
2022-09-28T19:52:34.615Z,20.02
2022-09-28T19:54:36.862Z,20.03
2022-09-28T19:56:38.195Z,20.03
2022-09-28T19:58:39.695Z,20.03
2022-09-28T20:00:41.201Z,20.03
2022-09-28T20:02:42.516Z,20.03
2022-09-28T20:04:43.858Z,20.04
2022-09-28T20:06:45.258Z,20.02
2022-09-28T20:08:46.567Z,20.02
2022-09-28T20:10:47.882Z,20.01
2022-09-28T20:12:49.138Z,20.02
2022-09-28T20:14:50.426Z,20.02
2022-09-28T20:16:51.770Z,20.03
2022-09-28T20:18:55.722Z,20.02
2022-09-28T20:20:57.308Z,20.01
2022-09-28T20:22:58.587Z,20.02
2022-09-28T20:25:00.613Z,20.01
2022-09-28T20:27:02.498Z,20.01
2022-09-28T20:29:03.999Z,20.02
2022-09-28T20:31:05.366Z,20.04
2022-09-28T20:33:07.425Z,20.06
2022-09-28T20:35:08.701Z,20.07
2022-09-28T20:37:12.446Z,20.10
2022-09-28T20:39:13.723Z,20.11
2022-09-28T20:41:14.990Z,20.11
2022-09-28T20:43:16.327Z,20.09
2022-09-28T20:45:17.606Z,20.08
2022-09-28T20:47:18.994Z,20.07
2022-09-28T20:49:20.405Z,20.04
2022-09-28T20:51:21.884Z,19.98
2022-09-28T20:53:23.559Z,19.94
2022-09-28T20:55:24.848Z,19.90
2022-09-28T20:57:26.275Z,19.87
2022-09-28T20:59:27.800Z,19.85
2022-09-28T21:01:30.055Z,19.10
2022-09-28T21:03:31.856Z,19.82
2022-09-28T21:05:33.195Z,19.81
2022-09-28T21:07:34.458Z,19.81
2022-09-28T21:09:35.718Z,19.81
2022-09-28T21:11:37.054Z,19.81
2022-09-28T21:13:41.504Z,19.81
2022-09-28T21:15:42.837Z,19.80
2022-09-28T21:17:44.413Z,19.79
2022-09-28T21:19:45.686Z,19.82
2022-09-28T21:21:46.950Z,20.83
2022-09-28T21:23:48.451Z,21.53
2022-09-28T21:25:49.766Z,21.98
2022-09-28T21:27:51.082Z,22.27
2022-09-28T21:29:52.412Z,22.16
2022-09-28T21:31:53.687Z,22.26
2022-09-28T21:33:54.950Z,21.61
2022-09-28T21:35:56.468Z,21.32
2022-09-28T21:37:57.803Z,21.21
2022-09-28T21:39:59.566Z,21.18
2022-09-28T21:42:00.904Z,21.19
2022-09-28T21:44:02.430Z,21.29
2022-09-28T21:46:03.762Z,21.43
2022-09-28T21:48:05.080Z,21.40
2022-09-28T21:50:06.774Z,21.36
2022-09-28T21:52:08.086Z,21.34
2022-09-28T21:54:09.359Z,21.31
2022-09-28T21:56:10.631Z,21.31
2022-09-28T21:58:12.146Z,21.33
2022-09-28T22:00:14.295Z,21.38
2022-09-28T22:02:15.579Z,21.44
2022-09-28T22:04:17.179Z,21.47
2022-09-28T22:06:18.583Z,21.47
2022-09-28T22:08:19.987Z,21.48
2022-09-28T22:10:21.296Z,21.92
2022-09-28T22:12:22.595Z,21.80
2022-09-28T22:14:23.870Z,21.76
2022-09-28T22:16:25.411Z,22.47
2022-09-28T22:18:28.237Z,22.08
2022-09-28T22:20:29.540Z,21.92
2022-09-28T22:22:30.802Z,21.84
2022-09-28T22:24:32.082Z,21.79
2022-09-28T22:26:33.614Z,21.75
2022-09-28T22:28:34.896Z,21.78
2022-09-28T22:30:36.430Z,21.84
2022-09-28T22:32:37.737Z,21.84
2022-09-28T22:34:39.059Z,21.76
2022-09-28T22:36:40.342Z,21.49
2022-09-28T22:38:41.610Z,21.58
2022-09-28T22:40:43.071Z,21.69
2022-09-28T22:42:44.477Z,21.75
2022-09-28T22:44:45.926Z,21.76
2022-09-28T22:46:47.256Z,21.75
2022-09-28T22:48:49.061Z,21.76
2022-09-28T22:50:50.391Z,21.81
2022-09-28T22:52:51.671Z,21.82
2022-09-28T22:54:53.969Z,21.95
2022-09-28T22:56:55.238Z,22.13
2022-09-28T22:58:56.525Z,22.05
2022-09-28T23:00:57.892Z,21.99
2022-09-28T23:02:59.242Z,21.96
2022-09-28T23:05:00.531Z,22.19
2022-09-28T23:07:01.848Z,22.06
2022-09-28T23:09:03.158Z,22.07
2022-09-28T23:11:04.467Z,22.11
2022-09-28T23:13:05.755Z,21.95
2022-09-28T23:15:07.257Z,21.53
2022-09-28T23:17:08.526Z,21.47
2022-09-28T23:19:09.835Z,21.40
2022-09-28T23:21:11.126Z,21.32
2022-09-28T23:23:12.448Z,21.27
2022-09-28T23:25:13.743Z,21.22
2022-09-28T23:27:15.016Z,21.17
2022-09-28T23:29:16.396Z,21.14
2022-09-28T23:31:17.840Z,21.08
2022-09-28T23:33:19.182Z,21.03
2022-09-28T23:35:20.476Z,20.98
2022-09-28T23:37:21.746Z,20.93
2022-09-28T23:39:23.062Z,20.90
2022-09-28T23:41:24.379Z,20.88
2022-09-28T23:43:25.730Z,20.84
2022-09-28T23:45:27.403Z,20.82
2022-09-28T23:47:28.684Z,20.80
2022-09-28T23:49:29.971Z,20.80
2022-09-28T23:51:31.573Z,20.79
2022-09-28T23:53:32.831Z,19.93
2022-09-28T23:55:34.327Z,20.79
2022-09-28T23:57:35.651Z,20.79
2022-09-28T23:59:36.926Z,20.79
